Time;durP1;ratioP1;P1;durP2;ratioP2;P2;SDS_P1;SDS_P2;PMS_P1;PMS_P2;Temp;Humidity;BMP_temperature;BMP_pressure;BME280_temperature;BME280_humidity;BME280_pressure;Samples;Min_cycle;Max_cycle;Signal;HPM_P1;HPM_P2
2023/11/16 00:00:14;;;;;;;7.20;1.90;;;7.70;99.90;;;;;;5052016;28;20479;-68
2023/11/16 00:02:43;;;;;;;10.93;2.80;;;7.70;99.90;;;;;;5055772;28;20417;-68
2023/11/16 00:05:13;;;;;;;2.90;1.47;;;7.70;99.90;;;;;;5068179;28;20459;-68
2023/11/16 00:07:41;;;;;;;16.43;3.07;;;7.70;99.90;;;;;;5066706;28;20444;-67
2023/11/16 00:10:08;;;;;;;3.50;1.70;;;7.80;99.90;;;;;;5071865;28;20919;-68
2023/11/16 00:12:34;;;;;;;5.67;2.50;;;7.80;99.90;;;;;;5071960;28;20404;-67
2023/11/16 00:15:00;;;;;;;3.50;1.83;;;7.80;99.90;;;;;;5071256;28;20396;-68
2023/11/16 00:17:28;;;;;;;15.20;3.13;;;7.80;99.90;;;;;;5070817;28;20536;-67
2023/11/16 00:19:55;;;;;;;7.67;2.50;;;7.80;99.90;;;;;;5071172;28;20182;-67
2023/11/16 00:22:20;;;;;;;11.00;2.37;;;7.80;99.90;;;;;;5071738;28;20488;-67
2023/11/16 00:24:46;;;;;;;15.33;2.60;;;7.70;99.90;;;;;;5071537;28;20842;-67
2023/11/16 00:27:12;;;;;;;5.27;2.30;;;7.70;99.90;;;;;;5071780;28;20194;-67
2023/11/16 00:29:39;;;;;;;6.10;2.60;;;7.70;99.90;;;;;;5071743;28;20207;-67
2023/11/16 00:32:05;;;;;;;7.70;2.30;;;7.70;99.90;;;;;;5071728;28;20461;-67
2023/11/16 00:34:30;;;;;;;8.27;2.30;;;7.60;99.90;;;;;;5071475;28;20428;-67
2023/11/16 00:36:56;;;;;;;7.63;3.00;;;7.60;99.90;;;;;;5071501;28;20443;-67
2023/11/16 00:39:21;;;;;;;7.53;2.57;;;7.60;99.90;;;;;;5071528;28;20239;-67
2023/11/16 00:41:47;;;;;;;8.60;3.30;;;7.60;99.90;;;;;;5071681;28;20167;-67
2023/11/16 00:44:19;;;;;;;5.30;2.83;;;7.60;99.90;;;;;;5071486;28;20582;-67
2023/11/16 00:46:46;;;;;;;7.03;2.60;;;7.60;99.90;;;;;;5071608;28;20433;-67
2023/11/16 00:49:11;;;;;;;5.80;2.63;;;7.70;99.90;;;;;;5071498;28;20420;-67
2023/11/16 00:51:37;;;;;;;6.87;1.77;;;7.70;99.90;;;;;;5071552;28;20412;-67
2023/11/16 00:54:03;;;;;;;7.67;2.67;;;7.80;99.90;;;;;;5071263;28;20185;-67
2023/11/16 00:56:28;;;;;;;9.53;2.47;;;7.80;99.90;;;;;;5071465;28;20265;-67
2023/11/16 00:58:55;;;;;;;7.37;2.33;;;7.80;99.90;;;;;;5071515;28;20277;-67
2023/11/16 01:01:22;;;;;;;10.20;3.30;;;7.80;99.90;;;;;;5070234;28;20228;-67
2023/11/16 01:03:49;;;;;;;7.43;2.43;;;7.80;99.90;;;;;;5070867;28;20443;-66
2023/11/16 01:06:15;;;;;;;9.33;2.50;;;7.80;99.90;;;;;;5066272;28;20460;-68
2023/11/16 01:08:41;;;;;;;2.43;1.80;;;7.90;99.90;;;;;;5071359;28;20435;-68
2023/11/16 01:11:12;;;;;;;6.00;2.00;;;7.90;99.90;;;;;;5071255;28;20409;-68
2023/11/16 01:13:38;;;;;;;6.23;2.50;;;7.90;99.90;;;;;;5071389;28;20185;-68
2023/11/16 01:16:14;;;;;;;4.07;2.20;;;8.00;99.90;;;;;;5071239;28;20405;-68
2023/11/16 01:18:50;;;;;;;7.27;2.20;;;8.10;99.90;;;;;;5071350;28;20264;-67
2023/11/16 01:21:17;;;;;;;6.93;2.70;;;8.10;99.90;;;;;;5071305;28;20380;-67
2023/11/16 01:23:45;;;;;;;5.90;1.80;;;8.20;99.90;;;;;;5071444;28;21104;-67
2023/11/16 01:26:15;;;;;;;13.70;3.40;;;8.30;99.90;;;;;;5071016;28;20487;-67
2023/11/16 01:28:50;;;;;;;12.60;2.70;;;8.20;99.90;;;;;;5072461;28;20939;-68
2023/11/16 01:31:19;;;;;;;7.90;2.27;;;8.20;99.90;;;;;;5074845;28;20471;-68
2023/11/16 01:33:46;;;;;;;3.43;1.60;;;8.30;99.90;;;;;;5074749;28;20927;-68
2023/11/16 01:36:13;;;;;;;10.73;2.30;;;8.40;99.90;;;;;;5074635;28;20435;-68
2023/11/16 01:38:42;;;;;;;4.13;1.60;;;8.50;99.90;;;;;;5074364;28;20520;-68
2023/11/16 01:41:08;;;;;;;9.23;3.20;;;8.50;99.90;;;;;;5074603;28;20404;-68
2023/11/16 01:43:37;;;;;;;4.43;1.90;;;8.60;99.90;;;;;;5074598;28;20443;-68
2023/11/16 01:46:07;;;;;;;4.13;1.87;;;8.50;99.90;;;;;;5074295;28;20546;-67
2023/11/16 01:48:44;;;;;;;11.87;2.10;;;8.60;99.90;;;;;;5074527;28;20420;-67
2023/11/16 01:51:14;;;;;;;8.43;2.10;;;8.60;99.90;;;;;;5074445;28;20388;-68
2023/11/16 01:53:55;;;;;;;6.37;1.70;;;8.70;99.90;;;;;;5074324;28;20515;-68
2023/11/16 01:56:21;;;;;;;10.30;1.87;;;8.70;99.90;;;;;;5074412;28;20392;-67
2023/11/16 01:58:48;;;;;;;23.57;2.40;;;8.70;99.90;;;;;;5074373;28;20428;-68
2023/11/16 02:01:16;;;;;;;4.33;1.70;;;8.70;99.90;;;;;;5074252;28;20170;-68
2023/11/16 02:03:42;;;;;;;3.67;1.90;;;8.70;99.90;;;;;;5074273;28;20809;-67
2023/11/16 02:06:08;;;;;;;4.30;2.07;;;8.70;99.90;;;;;;5064745;28;20464;-67
2023/11/16 02:08:35;;;;;;;8.63;2.20;;;8.70;99.90;;;;;;5074139;28;20464;-67
2023/11/16 02:11:01;;;;;;;8.20;2.27;;;8.80;99.90;;;;;;5074047;28;20166;-68
2023/11/16 02:13:26;;;;;;;6.93;2.40;;;8.80;99.90;;;;;;5074067;28;20906;-67
2023/11/16 02:15:55;;;;;;;3.93;2.23;;;8.80;99.90;;;;;;5055964;28;20170;-67
2023/11/16 02:18:22;;;;;;;8.37;3.27;;;8.80;99.90;;;;;;5073958;28;20258;-67
2023/11/16 02:20:48;;;;;;;11.67;2.70;;;8.90;99.90;;;;;;5073980;28;20774;-68
2023/11/16 02:23:19;;;;;;;15.03;3.23;;;8.80;99.90;;;;;;5073881;28;20409;-68
2023/11/16 02:25:50;;;;;;;3.10;2.10;;;8.80;99.90;;;;;;5073595;28;20448;-67
2023/11/16 02:28:19;;;;;;;5.73;1.97;;;8.80;99.90;;;;;;5055839;28;20400;-68
2023/11/16 02:30:44;;;;;;;3.17;1.37;;;8.80;99.90;;;;;;5073623;28;20407;-67
2023/11/16 02:33:10;;;;;;;10.53;2.20;;;8.70;99.90;;;;;;5073688;28;20762;-68
2023/11/16 02:35:35;;;;;;;5.40;2.20;;;8.70;99.90;;;;;;5073355;28;20162;-67
2023/11/16 02:38:03;;;;;;;2.90;1.70;;;8.80;99.90;;;;;;5073604;28;20190;-67
2023/11/16 02:40:28;;;;;;;5.33;1.60;;;8.70;99.90;;;;;;5072784;28;20621;-68
2023/11/16 02:42:54;;;;;;;2.70;1.87;;;8.70;99.90;;;;;;5073500;28;20431;-67
2023/11/16 02:45:23;;;;;;;4.27;1.77;;;8.70;99.90;;;;;;5073287;28;20201;-68
2023/11/16 02:47:50;;;;;;;7.43;2.00;;;8.70;99.90;;;;;;5073347;28;20409;-67
2023/11/16 02:50:19;;;;;;;3.40;1.47;;;8.70;99.90;;;;;;5073174;28;20416;-68
2023/11/16 02:52:46;;;;;;;4.07;1.67;;;8.80;99.90;;;;;;5073137;28;20895;-68
2023/11/16 02:55:12;;;;;;;9.00;2.20;;;8.80;99.90;;;;;;5073069;28;20868;-68
2023/11/16 02:57:41;;;;;;;5.20;2.13;;;8.80;99.90;;;;;;5073154;28;20408;-68
2023/11/16 03:00:12;;;;;;;5.00;1.80;;;8.80;99.90;;;;;;5073017;28;20435;-67
2023/11/16 03:02:41;;;;;;;5.83;2.50;;;8.80;99.90;;;;;;5072866;28;20492;-68
2023/11/16 03:05:12;;;;;;;6.73;2.67;;;8.90;99.90;;;;;;5067410;28;20485;-68
2023/11/16 03:07:38;;;;;;;3.33;1.57;;;8.90;99.90;;;;;;5072737;28;20444;-68
2023/11/16 03:10:12;;;;;;;6.90;2.23;;;8.80;99.90;;;;;;5072748;28;20512;-68
2023/11/16 03:12:38;;;;;;;6.97;2.20;;;8.80;99.90;;;;;;5072866;28;20776;-67
2023/11/16 03:15:05;;;;;;;8.80;2.30;;;8.80;99.90;;;;;;5072171;28;20416;-67
2023/11/16 03:17:34;;;;;;;7.57;2.33;;;8.90;99.90;;;;;;5072796;28;20787;-67
2023/11/16 03:20:00;;;;;;;5.40;2.13;;;8.90;99.90;;;;;;5072573;28;20454;-68
2023/11/16 03:22:28;;;;;;;7.90;2.27;;;8.90;99.90;;;;;;5072595;28;20413;-67
2023/11/16 03:24:54;;;;;;;5.90;1.80;;;8.90;99.90;;;;;;5072567;28;20966;-67
2023/11/16 03:27:21;;;;;;;13.10;2.80;;;8.80;99.90;;;;;;5072548;28;20546;-67
2023/11/16 03:29:47;;;;;;;3.73;2.10;;;8.80;99.90;;;;;;5072569;28;20557;-67
2023/11/16 03:32:13;;;;;;;15.90;2.77;;;8.80;99.90;;;;;;5072543;28;20396;-68
2023/11/16 03:34:39;;;;;;;4.57;1.87;;;8.70;99.90;;;;;;5054307;28;20473;-67
2023/11/16 03:37:04;;;;;;;7.93;2.67;;;8.80;99.90;;;;;;5072489;28;20529;-68
2023/11/16 03:39:31;;;;;;;2.43;2.23;;;8.70;99.90;;;;;;5072092;28;20421;-67
2023/11/16 03:41:58;;;;;;;6.30;2.50;;;8.70;99.90;;;;;;5072309;28;20220;-68
2023/11/16 03:44:24;;;;;;;7.37;2.60;;;8.60;99.90;;;;;;5072124;28;20462;-67
2023/11/16 03:46:49;;;;;;;14.03;2.13;;;8.60;99.90;;;;;;5054299;28;20460;-67
2023/11/16 03:49:15;;;;;;;4.93;2.20;;;8.60;99.90;;;;;;5072138;28;20219;-67
2023/11/16 03:51:40;;;;;;;9.70;1.73;;;8.50;99.90;;;;;;5071397;28;20204;-67
2023/11/16 03:54:06;;;;;;;5.17;2.00;;;8.50;99.90;;;;;;5071890;28;20182;-68
2023/11/16 03:56:31;;;;;;;5.10;2.00;;;8.50;99.90;;;;;;5072082;28;20171;-67
2023/11/16 03:58:57;;;;;;;2.23;1.80;;;8.40;99.90;;;;;;5072066;28;20186;-68
2023/11/16 04:01:22;;;;;;;13.87;2.27;;;8.50;99.90;;;;;;5072117;28;20528;-68
2023/11/16 04:03:48;;;;;;;2.67;1.73;;;8.40;99.90;;;;;;5054091;28;20201;-68
2023/11/16 04:06:18;;;;;;;6.07;2.17;;;8.40;99.90;;;;;;5066066;28;20292;-68
2023/11/16 04:08:45;;;;;;;5.93;2.53;;;8.30;99.90;;;;;;5067650;28;20268;-68
2023/11/16 04:11:10;;;;;;;4.80;1.53;;;8.30;99.90;;;;;;5072020;28;20419;-68
2023/11/16 04:13:36;;;;;;;5.00;1.90;;;8.20;99.90;;;;;;5071873;28;20891;-67
2023/11/16 04:16:02;;;;;;;13.43;3.40;;;8.20;99.90;;;;;;5071736;28;20318;-67
2023/11/16 04:18:27;;;;;;;10.67;3.00;;;8.20;99.90;;;;;;5071889;28;20193;-67
2023/11/16 04:20:53;;;;;;;1.90;1.50;;;8.10;99.90;;;;;;5071870;28;20244;-67
2023/11/16 04:23:19;;;;;;;7.90;2.30;;;8.10;99.90;;;;;;5071523;28;20162;-68
2023/11/16 04:25:45;;;;;;;4.87;1.93;;;8.00;99.90;;;;;;5071314;28;20401;-67
2023/11/16 04:28:13;;;;;;;6.60;1.87;;;8.10;99.90;;;;;;5071709;28;20410;-68
2023/11/16 04:30:38;;;;;;;4.20;1.73;;;8.00;99.90;;;;;;5053820;28;20412;-67
2023/11/16 04:33:04;;;;;;;10.43;2.10;;;8.00;99.90;;;;;;5071562;28;20469;-67
2023/11/16 04:35:30;;;;;;;10.20;2.50;;;8.00;99.90;;;;;;5071471;28;20633;-68
2023/11/16 04:37:55;;;;;;;4.53;2.53;;;7.90;99.90;;;;;;5071698;28;20450;-68
2023/11/16 04:40:24;;;;;;;4.57;2.20;;;7.80;99.90;;;;;;5071564;28;20182;-67
2023/11/16 04:42:50;;;;;;;7.57;2.60;;;7.80;99.90;;;;;;5071414;28;20521;-67
2023/11/16 04:45:16;;;;;;;4.20;1.93;;;7.80;99.90;;;;;;5071511;28;20404;-68
2023/11/16 04:47:44;;;;;;;14.03;2.77;;;7.70;99.90;;;;;;5071486;28;20240;-68
2023/11/16 04:50:13;;;;;;;10.33;2.07;;;7.60;99.90;;;;;;5071498;28;20182;-68
2023/11/16 04:52:48;;;;;;;9.20;2.03;;;7.60;99.90;;;;;;5071401;28;20416;-67
2023/11/16 04:55:15;;;;;;;7.33;2.20;;;7.50;99.90;;;;;;5071412;28;20813;-67
2023/11/16 04:57:40;;;;;;;11.07;2.57;;;7.50;99.90;;;;;;5053482;28;20512;-67
2023/11/16 05:00:10;;;;;;;5.00;1.63;;;7.40;99.90;;;;;;5071383;28;20836;-67
2023/11/16 05:02:36;;;;;;;9.50;2.30;;;7.30;99.90;;;;;;5071523;28;20701;-67
2023/11/16 05:05:02;;;;;;;12.13;3.33;;;7.30;99.90;;;;;;5069076;28;20507;-67
2023/11/16 05:07:28;;;;;;;3.07;2.23;;;7.30;99.90;;;;;;5070335;28;20450;-67
2023/11/16 05:09:54;;;;;;;7.20;1.80;;;7.20;99.90;;;;;;5075121;28;20432;-67
2023/11/16 05:12:19;;;;;;;3.57;1.77;;;7.30;99.90;;;;;;5075195;28;20171;-67
2023/11/16 05:14:45;;;;;;;4.90;2.00;;;7.30;99.90;;;;;;5075013;28;20194;-67
2023/11/16 05:17:10;;;;;;;3.63;2.20;;;7.30;99.90;;;;;;5075040;28;20170;-68
2023/11/16 05:19:37;;;;;;;5.33;1.93;;;7.30;99.90;;;;;;5075023;28;20193;-67
2023/11/16 05:22:02;;;;;;;6.70;2.20;;;7.20;99.90;;;;;;5075245;28;20185;-67
2023/11/16 05:24:29;;;;;;;1.87;1.77;;;7.30;99.90;;;;;;5075103;28;20412;-67
2023/11/16 05:27:01;;;;;;;4.53;2.70;;;7.30;99.90;;;;;;5074904;28;20201;-68
2023/11/16 05:29:27;;;;;;;3.13;1.80;;;7.30;99.90;;;;;;5074789;28;21026;-67
2023/11/16 05:31:53;;;;;;;10.73;2.67;;;7.30;99.90;;;;;;5074723;28;20397;-67
2023/11/16 05:34:19;;;;;;;11.40;1.97;;;7.30;99.90;;;;;;5074677;28;20819;-67
2023/11/16 05:36:46;;;;;;;4.10;1.33;;;7.30;99.90;;;;;;5074747;28;20544;-67
2023/11/16 05:39:13;;;;;;;4.90;2.07;;;7.20;99.90;;;;;;5074566;28;20189;-67
2023/11/16 05:41:38;;;;;;;6.90;2.17;;;7.20;99.90;;;;;;5074662;28;20454;-68
2023/11/16 05:44:04;;;;;;;8.23;2.07;;;7.20;99.90;;;;;;5074479;28;20404;-68
2023/11/16 05:46:32;;;;;;;2.83;1.93;;;7.20;99.90;;;;;;5074518;28;20280;-68
2023/11/16 05:48:58;;;;;;;2.03;1.70;;;7.20;99.90;;;;;;5074406;28;20182;-67
2023/11/16 05:51:23;;;;;;;5.97;2.00;;;7.20;99.90;;;;;;5071446;28;20415;-67
2023/11/16 05:53:49;;;;;;;9.30;2.33;;;7.20;99.90;;;;;;5074344;28;20182;-67
2023/11/16 05:56:14;;;;;;;5.00;2.20;;;7.20;99.90;;;;;;5074049;28;20174;-67
2023/11/16 05:58:42;;;;;;;5.10;1.50;;;7.20;99.90;;;;;;5064241;28;20556;-67
2023/11/16 06:01:13;;;;;;;9.23;1.87;;;7.20;99.90;;;;;;5045727;28;20183;-67
2023/11/16 06:03:39;;;;;;;7.23;2.37;;;7.20;99.90;;;;;;5074238;28;20470;-67
2023/11/16 06:06:05;;;;;;;3.87;1.67;;;7.20;99.90;;;;;;5066064;28;20456;-67
2023/11/16 06:08:31;;;;;;;3.97;2.40;;;7.20;99.90;;;;;;5073533;28;20256;-67
2023/11/16 06:10:57;;;;;;;9.73;2.10;;;7.30;99.90;;;;;;5074075;28;20404;-67
2023/11/16 06:13:23;;;;;;;2.70;1.40;;;7.20;99.90;;;;;;5074015;28;20462;-67
2023/11/16 06:15:49;;;;;;;3.50;1.53;;;7.30;99.90;;;;;;5072641;28;20591;-67
2023/11/16 06:18:16;;;;;;;2.60;2.30;;;7.30;99.90;;;;;;5073970;28;20712;-68
2023/11/16 06:20:43;;;;;;;6.10;1.70;;;7.30;99.90;;;;;;5074009;28;20403;-67
2023/11/16 06:23:08;;;;;;;2.70;2.40;;;7.30;99.90;;;;;;5073945;28;20845;-67
2023/11/16 06:25:34;;;;;;;4.37;1.87;;;7.30;99.90;;;;;;5073599;28;20479;-67
2023/11/16 06:28:00;;;;;;;17.37;2.57;;;7.40;99.90;;;;;;5055905;28;20170;-67
2023/11/16 06:30:25;;;;;;;2.10;1.70;;;7.40;99.90;;;;;;5055672;28;20221;-67
2023/11/16 06:32:51;;;;;;;9.87;2.37;;;7.40;99.90;;;;;;5073678;28;20170;-67
2023/11/16 06:35:16;;;;;;;3.93;1.33;;;7.50;99.90;;;;;;5073447;28;20221;-67
2023/11/16 06:37:43;;;;;;;1.97;1.70;;;7.50;99.90;;;;;;5073696;28;20166;-68
2023/11/16 06:40:09;;;;;;;3.57;1.33;;;7.50;99.90;;;;;;5073443;28;20655;-67
2023/11/16 06:42:36;;;;;;;5.23;1.87;;;7.60;99.90;;;;;;5073563;28;20410;-67
2023/11/16 06:45:04;;;;;;;6.30;1.47;;;7.60;99.90;;;;;;5073304;28;20412;-68
2023/11/16 06:47:32;;;;;;;8.33;2.70;;;7.70;99.90;;;;;;5073436;28;20440;-67
2023/11/16 06:49:58;;;;;;;3.47;1.87;;;7.70;99.90;;;;;;5073237;28;20805;-68
2023/11/16 06:52:26;;;;;;;5.67;2.13;;;7.70;99.90;;;;;;5065613;28;20468;-67
2023/11/16 06:54:52;;;;;;;4.93;2.17;;;7.70;99.90;;;;;;5072421;28;20409;-67
2023/11/16 06:57:22;;;;;;;7.80;2.37;;;7.80;99.90;;;;;;5073020;28;20412;-67
2023/11/16 06:59:49;;;;;;;9.53;2.50;;;7.80;99.90;;;;;;5072929;28;20524;-67
2023/11/16 07:02:14;;;;;;;6.97;1.90;;;7.70;99.90;;;;;;5072988;28;20408;-67
2023/11/16 07:04:41;;;;;;;2.70;1.80;;;7.70;99.90;;;;;;5069715;28;20555;-67
2023/11/16 07:07:07;;;;;;;4.60;2.20;;;7.70;99.90;;;;;;5072889;28;20649;-67
2023/11/16 07:09:32;;;;;;;4.77;2.20;;;7.70;99.90;;;;;;5072676;28;20428;-67
2023/11/16 07:11:59;;;;;;;10.33;2.30;;;7.70;99.90;;;;;;5072807;28;20240;-67
2023/11/16 07:14:25;;;;;;;7.17;2.40;;;7.60;99.90;;;;;;5072433;28;20173;-67
2023/11/16 07:16:53;;;;;;;3.00;1.63;;;7.70;99.90;;;;;;5072666;28;20408;-68
2023/11/16 07:19:19;;;;;;;2.33;2.00;;;7.60;99.90;;;;;;5054731;28;20436;-68
2023/11/16 07:21:44;;;;;;;3.77;2.30;;;7.70;99.90;;;;;;5072759;28;20404;-67
2023/11/16 07:24:11;;;;;;;13.17;2.10;;;7.70;99.90;;;;;;5072507;28;20409;-67
2023/11/16 07:26:37;;;;;;;4.90;2.00;;;7.70;99.90;;;;;;5072368;28;20198;-67
2023/11/16 07:29:03;;;;;;;6.80;2.23;;;7.70;99.90;;;;;;5072396;28;20951;-67
2023/11/16 07:31:29;;;;;;;6.43;2.03;;;7.70;99.90;;;;;;5072544;28;20445;-68
2023/11/16 07:33:57;;;;;;;8.63;1.67;;;7.70;99.90;;;;;;5054347;28;20173;-67
2023/11/16 07:36:26;;;;;;;5.90;2.30;;;7.80;99.90;;;;;;5072605;28;20416;-68
2023/11/16 07:38:56;;;;;;;4.50;1.87;;;7.80;99.90;;;;;;5072356;28;20525;-68
2023/11/16 07:41:21;;;;;;;6.70;1.80;;;7.80;99.90;;;;;;5072452;28;20423;-67
2023/11/16 07:43:47;;;;;;;8.10;1.80;;;7.80;99.90;;;;;;5072784;28;20401;-67
2023/11/16 07:46:13;;;;;;;3.33;1.80;;;7.90;99.90;;;;;;5072071;28;20850;-67
2023/11/16 07:48:40;;;;;;;12.60;2.23;;;7.90;99.90;;;;;;5072266;28;20416;-67
2023/11/16 07:51:09;;;;;;;5.00;1.77;;;8.10;99.90;;;;;;5072248;28;20154;-67
2023/11/16 07:53:36;;;;;;;3.87;2.13;;;8.30;99.90;;;;;;5071956;28;20431;-67
2023/11/16 07:56:05;;;;;;;4.07;2.20;;;8.70;99.90;;;;;;5072082;28;20408;-67
2023/11/16 07:58:39;;;;;;;5.83;1.50;;;9.00;99.90;;;;;;5072016;28;20768;-67
2023/11/16 08:01:04;;;;;;;4.23;1.83;;;9.10;99.90;;;;;;5062154;28;20453;-68
2023/11/16 08:03:43;;;;;;;5.33;2.03;;;9.20;99.90;;;;;;5071018;28;20428;-67
2023/11/16 08:06:13;;;;;;;7.07;1.63;;;9.10;99.90;;;;;;5065132;28;20202;-67
2023/11/16 08:08:42;;;;;;;5.30;1.90;;;9.00;99.90;;;;;;5063669;28;20428;-68
2023/11/16 08:11:12;;;;;;;2.07;1.50;;;9.20;99.90;;;;;;5063374;28;20408;-68
2023/11/16 08:13:41;;;;;;;7.10;1.30;;;9.50;99.90;;;;;;5051871;28;20401;-68
2023/11/16 08:16:12;;;;;;;4.20;1.40;;;9.70;99.90;;;;;;5051767;28;20420;-68
2023/11/16 08:18:38;;;;;;;3.93;1.50;;;9.80;99.90;;;;;;5051774;28;20433;-67
2023/11/16 08:21:09;;;;;;;4.20;1.73;;;10.00;99.90;;;;;;5051763;28;20405;-68
2023/11/16 08:23:39;;;;;;;4.67;3.07;;;9.90;99.90;;;;;;5051602;28;20443;-68
2023/11/16 08:26:06;;;;;;;3.07;1.80;;;10.00;99.90;;;;;;5064536;28;20451;-68
2023/11/16 08:28:34;;;;;;;4.40;1.90;;;10.00;99.90;;;;;;5071736;28;20428;-68
2023/11/16 08:30:59;;;;;;;2.40;1.90;;;9.90;99.90;;;;;;5071739;28;20400;-68
2023/11/16 08:33:29;;;;;;;8.07;2.40;;;9.70;99.90;;;;;;5071799;28;20399;-68
2023/11/16 08:35:58;;;;;;;11.03;4.43;;;9.60;99.90;;;;;;5070244;28;20183;-67
2023/11/16 08:38:27;;;;;;;8.90;2.40;;;9.70;99.90;;;;;;5072742;28;20420;-69
2023/11/16 08:40:55;;;;;;;8.33;3.33;;;9.60;99.90;;;;;;5074544;28;20405;-68
2023/11/16 08:43:22;;;;;;;7.20;4.03;;;9.60;99.90;;;;;;5075753;28;20768;-68
2023/11/16 08:45:49;;;;;;;11.03;3.50;;;9.70;99.90;;;;;;5070349;28;20416;-68
2023/11/16 08:48:16;;;;;;;6.53;2.90;;;9.70;99.90;;;;;;5075572;28;20412;-68
2023/11/16 08:50:43;;;;;;;2.67;1.80;;;9.80;99.90;;;;;;5075587;28;20401;-68
2023/11/16 08:53:09;;;;;;;4.87;2.53;;;10.00;99.90;;;;;;5075423;28;20420;-68
2023/11/16 08:55:35;;;;;;;2.10;1.77;;;10.30;99.90;;;;;;5075202;28;20495;-68
2023/11/16 08:58:01;;;;;;;7.60;2.60;;;10.90;99.90;;;;;;5062768;28;20833;-68
2023/11/16 09:00:37;;;;;;;6.93;1.93;;;11.50;99.90;;;;;;5075313;28;20564;-69
2023/11/16 09:03:10;;;;;;;6.50;2.00;;;12.40;99.90;;;;;;5075352;28;20166;-68
2023/11/16 09:05:37;;;;;;;9.30;2.37;;;13.20;99.90;;;;;;5069045;28;20428;-68
2023/11/16 09:08:03;;;;;;;5.43;1.80;;;13.30;99.90;;;;;;5075126;28;20408;-68
2023/11/16 09:10:33;;;;;;;4.87;1.70;;;13.20;99.90;;;;;;5074941;28;20404;-68
2023/11/16 09:13:00;;;;;;;6.20;1.80;;;13.00;99.90;;;;;;5075113;28;20432;-68
2023/11/16 09:15:26;;;;;;;2.27;1.60;;;12.90;99.90;;;;;;5075080;28;20424;-68
2023/11/16 09:17:54;;;;;;;3.30;2.07;;;12.40;99.90;;;;;;5075025;28;20448;-68
2023/11/16 09:20:22;;;;;;;4.17;1.97;;;12.10;99.90;;;;;;5074962;28;20186;-68
2023/11/16 09:22:48;;;;;;;5.10;2.90;;;12.00;99.90;;;;;;5075016;28;20428;-67
2023/11/16 09:25:18;;;;;;;3.10;2.27;;;11.80;99.90;;;;;;5074918;28;20424;-68
2023/11/16 09:27:50;;;;;;;9.63;2.40;;;11.70;99.90;;;;;;5074896;28;20456;-68
2023/11/16 09:30:22;;;;;;;4.43;2.20;;;11.60;99.90;;;;;;5074849;28;20404;-67
2023/11/16 09:32:50;;;;;;;4.53;2.67;;;11.80;99.90;;;;;;5074950;28;20389;-68
2023/11/16 09:35:16;;;;;;;4.00;2.23;;;11.80;99.90;;;;;;5056714;28;20431;-68
2023/11/16 09:37:45;;;;;;;3.70;2.00;;;11.70;99.90;;;;;;5074786;28;20400;-69
2023/11/16 09:40:13;;;;;;;4.73;2.00;;;11.60;99.90;;;;;;5074567;28;20801;-68
2023/11/16 09:42:39;;;;;;;3.27;1.83;;;11.60;99.90;;;;;;5074532;28;20780;-68
2023/11/16 09:45:07;;;;;;;6.30;1.93;;;11.70;99.90;;;;;;5074505;28;20400;-68
2023/11/16 09:47:42;;;;;;;3.03;1.57;;;11.80;99.90;;;;;;5074592;28;20440;-68
2023/11/16 09:50:08;;;;;;;3.23;2.50;;;11.90;99.90;;;;;;5074369;28;20900;-68
2023/11/16 09:52:38;;;;;;;8.63;2.40;;;11.80;99.90;;;;;;5074493;28;20787;-68
2023/11/16 09:55:06;;;;;;;1.50;1.30;;;11.80;99.90;;;;;;5074358;28;20475;-68
2023/11/16 09:57:37;;;;;;;5.97;1.90;;;11.90;99.90;;;;;;5073239;28;20999;-68
2023/11/16 10:00:14;;;;;;;2.80;2.10;;;11.90;99.90;;;;;;5074332;28;20429;-68
2023/11/16 10:02:47;;;;;;;3.37;2.10;;;11.80;99.90;;;;;;5074542;28;20388;-68
2023/11/16 10:05:23;;;;;;;8.90;2.50;;;11.80;99.90;;;;;;5074144;28;20843;-68
2023/11/16 10:07:53;;;;;;;4.40;2.63;;;11.50;99.90;;;;;;5072953;28;20459;-68
2023/11/16 10:10:29;;;;;;;3.67;1.63;;;11.50;99.90;;;;;;5074083;28;20523;-68
2023/11/16 10:12:54;;;;;;;4.43;1.80;;;11.60;99.90;;;;;;5067275;28;20836;-68
2023/11/16 10:15:20;;;;;;;2.90;1.50;;;11.70;99.90;;;;;;5073975;28;20407;-68
2023/11/16 10:17:50;;;;;;;4.43;1.60;;;11.70;99.90;;;;;;5074220;28;20725;-68
2023/11/16 10:20:17;;;;;;;3.70;1.43;;;11.70;99.90;;;;;;5073875;28;20934;-68
2023/11/16 10:22:46;;;;;;;7.03;1.70;;;11.80;99.90;;;;;;5072690;28;20408;-68
2023/11/16 10:25:14;;;;;;;2.50;1.80;;;11.80;99.90;;;;;;5073745;28;20439;-68
2023/11/16 10:27:41;;;;;;;3.10;2.33;;;11.80;99.90;;;;;;5073855;28;20535;-68
2023/11/16 10:30:12;;;;;;;2.93;2.00;;;11.80;99.90;;;;;;5073734;28;20765;-68
2023/11/16 10:32:42;;;;;;;4.43;2.20;;;11.80;99.90;;;;;;5072441;28;20405;-68
2023/11/16 10:35:14;;;;;;;2.37;1.90;;;11.80;99.90;;;;;;5073581;28;20400;-68
2023/11/16 10:37:44;;;;;;;7.10;2.17;;;11.80;99.90;;;;;;5072425;28;20976;-68
2023/11/16 10:40:11;;;;;;;5.10;3.33;;;11.90;99.90;;;;;;5072194;28;20487;-68
2023/11/16 10:42:38;;;;;;;7.33;2.17;;;11.90;99.90;;;;;;5073636;28;20944;-68
2023/11/16 10:45:05;;;;;;;4.90;2.47;;;11.90;99.90;;;;;;5073373;28;20401;-68
2023/11/16 10:47:32;;;;;;;6.23;2.50;;;11.90;99.90;;;;;;5072040;28;20547;-68
2023/11/16 10:49:58;;;;;;;5.90;3.10;;;11.90;99.90;;;;;;5073347;28;20838;-68
2023/11/16 10:52:26;;;;;;;5.00;2.23;;;11.90;99.90;;;;;;5073263;28;20412;-68
2023/11/16 10:54:55;;;;;;;6.80;3.07;;;11.90;99.90;;;;;;5073130;28;20759;-68
2023/11/16 10:57:21;;;;;;;5.20;2.50;;;11.90;99.90;;;;;;5073244;28;20396;-68
2023/11/16 10:59:50;;;;;;;3.33;2.37;;;11.90;99.90;;;;;;5071922;28;20433;-68
2023/11/16 11:02:18;;;;;;;4.80;2.73;;;11.90;99.90;;;;;;5072478;28;20411;-68
2023/11/16 11:04:43;;;;;;;4.87;3.00;;;11.90;99.90;;;;;;5072841;28;20417;-68
2023/11/16 11:07:12;;;;;;;4.27;3.00;;;11.80;99.90;;;;;;5072969;28;20451;-67
2023/11/16 11:09:46;;;;;;;5.20;3.37;;;11.80;99.90;;;;;;5072789;28;20235;-68
2023/11/16 11:12:16;;;;;;;8.40;5.37;;;11.70;99.90;;;;;;5072961;28;20399;-68
2023/11/16 11:14:51;;;;;;;7.20;3.70;;;11.70;99.90;;;;;;5055027;28;20412;-68
2023/11/16 11:17:20;;;;;;;4.83;3.43;;;11.70;99.90;;;;;;5072829;28;20416;-68
2023/11/16 11:20:08;;;;;;;4.40;3.10;;;11.60;99.90;;;;;;5068855;28;20818;-68
2023/11/16 11:22:34;;;;;;;5.60;2.50;;;11.50;99.90;;;;;;5060673;28;20432;-68
2023/11/16 11:24:59;;;;;;;4.70;2.33;;;11.40;99.90;;;;;;5060625;28;20414;-68
2023/11/16 11:27:25;;;;;;;3.50;2.53;;;11.40;99.90;;;;;;5062661;28;20212;-68
2023/11/16 11:29:54;;;;;;;9.47;3.50;;;11.50;99.90;;;;;;5060428;28;20186;-68
2023/11/16 11:32:28;;;;;;;3.20;2.30;;;11.50;99.90;;;;;;5072622;28;20412;-68
2023/11/16 11:34:54;;;;;;;4.13;2.40;;;11.50;99.90;;;;;;5072438;28;20401;-68
2023/11/16 11:37:20;;;;;;;4.20;3.00;;;11.40;99.90;;;;;;5072396;28;20440;-68
2023/11/16 11:39:46;;;;;;;6.00;2.40;;;11.30;99.90;;;;;;5072287;28;20459;-68
2023/11/16 11:42:16;;;;;;;10.27;3.77;;;11.30;99.90;;;;;;5072395;28;20170;-68
2023/11/16 11:44:53;;;;;;;3.97;2.87;;;11.10;99.90;;;;;;5071006;28;20426;-68
2023/11/16 11:47:20;;;;;;;6.33;2.30;;;10.90;99.90;;;;;;5072306;28;20452;-68
2023/11/16 11:49:48;;;;;;;4.13;2.50;;;10.90;99.90;;;;;;5071953;28;20420;-68
2023/11/16 11:52:16;;;;;;;4.33;3.10;;;10.70;99.90;;;;;;5072187;28;20440;-68
2023/11/16 11:54:43;;;;;;;3.63;2.33;;;10.70;99.90;;;;;;5070896;28;20438;-68
2023/11/16 11:57:08;;;;;;;10.00;3.87;;;10.60;99.90;;;;;;5072240;28;20405;-68
2023/11/16 11:59:36;;;;;;;2.80;2.20;;;10.50;99.90;;;;;;5072045;28;20787;-68
2023/11/16 12:02:09;;;;;;;7.60;3.00;;;10.50;99.90;;;;;;5072253;28;20676;-68
2023/11/16 12:04:36;;;;;;;2.43;2.20;;;10.40;99.90;;;;;;5071649;28;20430;-67
2023/11/16 12:07:03;;;;;;;13.47;2.13;;;10.40;99.90;;;;;;5067966;28;20452;-67
2023/11/16 12:09:31;;;;;;;5.67;2.60;;;10.50;99.90;;;;;;5063555;28;20439;-68
2023/11/16 12:11:56;;;;;;;3.80;2.07;;;10.50;99.90;;;;;;5064707;28;20404;-68
2023/11/16 12:14:25;;;;;;;4.23;2.63;;;10.50;99.90;;;;;;5071263;28;20405;-68
2023/11/16 12:16:51;;;;;;;3.93;2.73;;;10.50;99.90;;;;;;5071625;28;20173;-67
2023/11/16 12:19:21;;;;;;;2.80;2.30;;;10.60;99.90;;;;;;5071607;28;20428;-68
2023/11/16 12:21:48;;;;;;;4.20;3.67;;;10.60;99.90;;;;;;5071513;28;20178;-67
2023/11/16 12:24:14;;;;;;;2.57;2.37;;;10.60;99.90;;;;;;5071379;28;20404;-68
2023/11/16 12:26:40;;;;;;;5.00;2.60;;;10.60;99.90;;;;;;5071441;28;20455;-68
2023/11/16 12:29:16;;;;;;;4.40;2.30;;;10.60;99.90;;;;;;5071502;28;20440;-68
2023/11/16 12:31:41;;;;;;;8.93;2.83;;;10.70;99.90;;;;;;5071755;28;20411;-68
2023/11/16 12:34:07;;;;;;;5.00;3.30;;;10.70;99.90;;;;;;5071640;28;20392;-68
2023/11/16 12:36:35;;;;;;;3.83;2.50;;;10.70;99.90;;;;;;5071716;28;20170;-68
2023/11/16 12:39:01;;;;;;;3.93;2.57;;;10.70;99.90;;;;;;5071519;28;20182;-68
2023/11/16 12:41:26;;;;;;;3.13;2.43;;;10.70;99.90;;;;;;5071635;28;20494;-68
2023/11/16 12:43:52;;;;;;;3.83;2.60;;;10.70;99.90;;;;;;5071697;28;20205;-69
2023/11/16 12:46:19;;;;;;;9.70;2.23;;;10.80;99.90;;;;;;5071647;28;20190;-68
2023/11/16 12:48:45;;;;;;;10.63;2.23;;;10.80;99.90;;;;;;5071618;28;20577;-69
2023/11/16 12:51:13;;;;;;;4.73;2.77;;;10.80;99.90;;;;;;5071645;28;20874;-68
2023/11/16 12:53:40;;;;;;;10.40;3.40;;;10.80;99.90;;;;;;5071454;28;20253;-68